Time;durP1;ratioP1;P1;durP2;ratioP2;P2;SDS_P1;SDS_P2;PMS_P1;PMS_P2;Temp;Humidity;BMP_temperature;BMP_pressure;BME280_temperature;BME280_humidity;BME280_pressure;Samples;Min_cycle;Max_cycle;Signal;HPM_P1;HPM_P2
2023/07/25 00:01:08;;;;;;;10.05;3.80;;;;;;;13.23;100.00;100543.44;5010412;28;20038;-79
2023/07/25 00:03:35;;;;;;;6.05;3.20;;;;;;;13.19;100.00;100534.75;4993778;28;20120;-78
2023/07/25 00:06:03;;;;;;;9.32;3.30;;;;;;;13.14;100.00;100542.06;4993388;28;20038;-78
2023/07/25 00:08:32;;;;;;;8.05;3.65;;;;;;;13.10;100.00;100538.69;5009595;28;20046;-78
2023/07/25 00:11:00;;;;;;;7.60;3.13;;;;;;;13.06;100.00;100550.34;5008412;28;20670;-80
2023/07/25 00:13:28;;;;;;;7.65;3.00;;;;;;;13.02;100.00;100548.78;5005268;28;20688;-82
2023/07/25 00:15:55;;;;;;;8.32;3.20;;;;;;;13.02;100.00;100554.06;5008709;28;20113;-78
2023/07/25 00:18:22;;;;;;;6.88;3.25;;;;;;;13.01;100.00;100553.19;4991992;28;20049;-79
2023/07/25 00:20:49;;;;;;;7.45;2.92;;;;;;;13.00;100.00;100561.22;5010185;28;20089;-80
2023/07/25 00:23:16;;;;;;;9.10;3.10;;;;;;;12.99;100.00;100554.19;5010302;28;20080;-79
2023/07/25 00:25:43;;;;;;;9.18;3.35;;;;;;;12.98;100.00;100549.84;5022692;28;20470;-80
2023/07/25 00:28:10;;;;;;;7.40;3.60;;;;;;;12.94;100.00;100548.25;5008793;28;20598;-80
2023/07/25 00:30:39;;;;;;;13.18;3.45;;;;;;;12.87;100.00;100543.25;4991764;28;20042;-80
2023/07/25 00:33:06;;;;;;;10.52;3.38;;;;;;;12.83;100.00;100548.72;4992143;28;20114;-80
2023/07/25 00:35:33;;;;;;;9.60;3.88;;;;;;;12.80;100.00;100546.22;4992346;28;20053;-79
2023/07/25 00:38:04;;;;;;;8.40;3.50;;;;;;;12.77;100.00;100555.16;4990681;28;20058;-79
2023/07/25 00:40:31;;;;;;;10.82;3.67;;;;;;;12.74;100.00;100547.34;4988447;28;20097;-80
2023/07/25 00:43:00;;;;;;;8.25;3.63;;;;;;;12.71;100.00;100550.16;4992104;28;20134;-80
2023/07/25 00:45:29;;;;;;;13.40;3.75;;;;;;;12.67;100.00;100546.75;4990515;28;20100;-81
2023/07/25 00:47:56;;;;;;;7.40;3.92;;;;;;;12.65;100.00;100553.03;4978304;28;20045;-80
2023/07/25 00:50:24;;;;;;;6.13;3.90;;;;;;;12.62;100.00;100555.81;5000487;28;20038;-81
2023/07/25 00:52:52;;;;;;;8.45;4.00;;;;;;;12.57;100.00;100548.06;4988707;28;20073;-82
2023/07/25 00:55:19;;;;;;;11.73;5.05;;;;;;;12.54;100.00;100554.34;5010963;28;20571;-82
2023/07/25 00:57:46;;;;;;;7.05;4.10;;;;;;;12.51;100.00;100553.63;5011030;28;20042;-82
2023/07/25 01:00:13;;;;;;;10.35;4.72;;;;;;;12.49;100.00;100552.84;5007846;28;20627;-82
2023/07/25 01:02:40;;;;;;;10.40;4.53;;;;;;;12.47;100.00;100552.03;5002019;28;20077;-81
2023/07/25 01:05:09;;;;;;;7.78;4.22;;;;;;;12.44;100.00;100553.03;5005920;28;20107;-81
2023/07/25 01:07:38;;;;;;;12.10;4.72;;;;;;;12.42;100.00;100549.59;5007123;28;20057;-78
2023/07/25 01:10:07;;;;;;;8.45;5.40;;;;;;;12.41;100.00;100561.13;4989419;28;20409;-77
2023/07/25 01:12:34;;;;;;;7.95;4.65;;;;;;;12.37;100.00;100547.16;4988383;28;20050;-78
2023/07/25 01:15:01;;;;;;;11.52;4.38;;;;;;;12.36;100.00;100549.88;5004216;28;20180;-78
2023/07/25 01:17:28;;;;;;;10.80;5.10;;;;;;;12.34;100.00;100544.66;4995929;28;20034;-78
2023/07/25 01:19:57;;;;;;;9.70;4.63;;;;;;;12.33;100.00;100552.63;5006173;28;20042;-78
2023/07/25 01:22:26;;;;;;;8.48;4.85;;;;;;;12.32;100.00;100549.13;4989690;28;20034;-78
2023/07/25 01:24:55;;;;;;;6.65;4.95;;;;;;;12.31;100.00;100554.50;5002761;28;20041;-78
2023/07/25 01:27:22;;;;;;;8.32;4.88;;;;;;;12.29;100.00;100543.97;5007194;28;20042;-79
2023/07/25 01:29:49;;;;;;;13.40;5.43;;;;;;;12.29;100.00;100545.78;5007756;28;20057;-79
2023/07/25 01:32:16;;;;;;;10.40;4.93;;;;;;;12.27;100.00;100545.81;4999679;28;20604;-79
2023/07/25 01:34:43;;;;;;;7.32;4.43;;;;;;;12.24;100.00;100543.31;4995269;28;20048;-79
2023/07/25 01:37:11;;;;;;;9.52;4.75;;;;;;;12.21;100.00;100546.09;5007512;28;20045;-80
2023/07/25 01:39:38;;;;;;;10.95;4.82;;;;;;;12.16;100.00;100534.88;5005829;28;20127;-80
2023/07/25 01:42:05;;;;;;;11.48;5.32;;;;;;;12.11;100.00;100542.94;4988283;28;20042;-77
2023/07/25 01:44:33;;;;;;;9.15;4.68;;;;;;;12.08;100.00;100546.59;5007045;28;20533;-78
2023/07/25 01:47:00;;;;;;;9.43;5.20;;;;;;;12.04;100.00;100541.50;5007531;28;20146;-77
2023/07/25 01:49:27;;;;;;;14.32;5.28;;;;;;;12.00;100.00;100538.13;5005844;28;20045;-78
2023/07/25 01:51:54;;;;;;;8.85;5.07;;;;;;;11.97;100.00;100535.56;4991111;28;20061;-77
2023/07/25 01:54:22;;;;;;;12.77;5.88;;;;;;;11.95;100.00;100532.16;5004086;28;20517;-83
2023/07/25 01:56:49;;;;;;;8.02;5.05;;;;;;;11.91;100.00;100527.91;4997748;28;20107;-82
2023/07/25 01:59:17;;;;;;;10.50;5.55;;;;;;;11.89;100.00;100522.69;4990397;28;20050;-82
2023/07/25 02:01:45;;;;;;;14.60;5.60;;;;;;;11.86;100.00;100521.94;5006386;28;20053;-82
2023/07/25 02:04:12;;;;;;;10.07;5.43;;;;;;;11.85;100.00;100517.59;4998593;28;20521;-82
2023/07/25 02:06:39;;;;;;;8.40;5.95;;;;;;;11.82;100.00;100508.00;5003281;28;20045;-82
2023/07/25 02:09:06;;;;;;;9.73;5.50;;;;;;;11.79;100.00;100511.63;4988367;28;20050;-82
2023/07/25 02:11:34;;;;;;;9.82;6.03;;;;;;;11.75;100.00;100512.66;4986403;28;20045;-82
2023/07/25 02:14:01;;;;;;;11.60;6.38;;;;;;;11.74;100.00;100505.69;4989291;28;20128;-82
2023/07/25 02:16:29;;;;;;;7.85;5.68;;;;;;;11.72;100.00;100507.53;5008418;28;20049;-82
2023/07/25 02:18:56;;;;;;;11.35;6.40;;;;;;;11.71;100.00;100504.94;4990955;28;20042;-83
2023/07/25 02:21:24;;;;;;;13.00;6.25;;;;;;;11.71;100.00;100515.50;4989666;28;20044;-83
2023/07/25 02:23:51;;;;;;;9.68;6.10;;;;;;;11.72;100.00;100515.44;4971440;28;20123;-83
2023/07/25 02:26:18;;;;;;;9.60;6.15;;;;;;;11.74;100.00;100518.03;4987276;28;20046;-84
2023/07/25 02:28:45;;;;;;;11.50;7.47;;;;;;;11.76;100.00;100505.63;5006163;28;20046;-81
2023/07/25 02:31:12;;;;;;;16.35;8.50;;;;;;;11.80;100.00;100512.50;4988505;28;20040;-80
2023/07/25 02:33:39;;;;;;;13.75;8.00;;;;;;;11.85;100.00;100512.31;5012682;28;20121;-80
2023/07/25 02:36:07;;;;;;;13.13;8.02;;;;;;;11.90;100.00;100505.06;4986619;28;20047;-80
2023/07/25 02:38:34;;;;;;;13.52;8.43;;;;;;;11.93;100.00;100510.22;5000195;28;20089;-80
2023/07/25 02:41:02;;;;;;;14.50;8.52;;;;;;;11.93;100.00;100505.78;5008388;28;20393;-80
2023/07/25 02:43:29;;;;;;;18.27;8.27;;;;;;;11.94;100.00;100504.00;5006242;28;20620;-80
2023/07/25 02:45:56;;;;;;;15.77;7.72;;;;;;;11.94;100.00;100504.00;4988774;28;20042;-80
2023/07/25 02:48:23;;;;;;;13.63;7.90;;;;;;;11.94;100.00;100511.94;4990556;28;20045;-80
2023/07/25 02:50:50;;;;;;;15.00;8.50;;;;;;;11.93;100.00;100511.06;4987469;28;20057;-82
2023/07/25 02:53:17;;;;;;;16.05;8.30;;;;;;;11.92;100.00;100503.22;5008584;28;20060;-82
2023/07/25 02:55:45;;;;;;;15.15;8.13;;;;;;;11.90;100.00;100505.94;4999217;28;20050;-82
2023/07/25 02:58:12;;;;;;;15.85;8.57;;;;;;;11.90;100.00;100507.69;5006051;28;20112;-79
2023/07/25 03:00:40;;;;;;;12.43;8.35;;;;;;;11.86;100.00;100503.44;5006607;28;20100;-79
2023/07/25 03:03:07;;;;;;;13.55;8.40;;;;;;;11.85;100.00;100512.31;5014296;28;20409;-79
2023/07/25 03:05:35;;;;;;;17.48;8.80;;;;;;;11.83;100.00;100500.97;5002961;28;20137;-79
2023/07/25 03:08:02;;;;;;;15.77;8.35;;;;;;;11.81;100.00;100511.56;4991012;28;20046;-78
2023/07/25 03:10:29;;;;;;;16.13;9.10;;;;;;;11.77;100.00;100505.53;5006197;28;20100;-78
2023/07/25 03:12:56;;;;;;;15.77;8.95;;;;;;;11.76;100.00;100508.25;4972744;28;20505;-78
2023/07/25 03:15:23;;;;;;;15.50;8.82;;;;;;;11.75;100.00;100512.66;4994753;28;20064;-80
2023/07/25 03:17:51;;;;;;;15.88;9.13;;;;;;;11.72;100.00;100514.56;5008241;28;20461;-79
2023/07/25 03:20:18;;;;;;;16.13;9.10;;;;;;;11.71;100.00;100516.38;5005638;28;20046;-80
2023/07/25 03:22:45;;;;;;;11.73;8.73;;;;;;;11.71;100.00;100515.50;4987618;28;20042;-80
2023/07/25 03:25:12;;;;;;;13.55;8.48;;;;;;;11.70;100.00;100513.81;5002209;28;20526;-80
2023/07/25 03:27:40;;;;;;;12.45;8.75;;;;;;;11.68;100.00;100516.47;5006213;28;20054;-79
2023/07/25 03:30:07;;;;;;;14.20;9.63;;;;;;;11.65;100.00;100516.59;4988839;28;20049;-79
2023/07/25 03:32:34;;;;;;;22.80;10.10;;;;;;;11.63;100.00;100513.19;4989550;28;20050;-78
2023/07/25 03:35:02;;;;;;;15.07;9.02;;;;;;;11.63;100.00;100515.81;4997177;28;20457;-79
2023/07/25 03:37:29;;;;;;;16.58;10.02;;;;;;;11.62;100.00;100514.09;4993658;28;20046;-79
2023/07/25 03:39:56;;;;;;;17.83;10.05;;;;;;;11.62;100.00;100508.81;5008309;28;20056;-79
2023/07/25 03:42:24;;;;;;;13.63;9.65;;;;;;;11.61;100.00;100504.47;5008680;28;20061;-78
2023/07/25 03:44:52;;;;;;;16.92;9.77;;;;;;;11.60;100.00;100510.66;4989007;28;20090;-78
2023/07/25 03:47:19;;;;;;;18.20;9.93;;;;;;;11.57;100.00;100509.00;4992239;28;20053;-79
2023/07/25 03:49:46;;;;;;;13.82;9.18;;;;;;;11.56;100.00;100512.56;4991901;28;20045;-79
2023/07/25 03:52:13;;;;;;;16.25;9.20;;;;;;;11.56;100.00;100509.94;5009839;28;20038;-78
2023/07/25 03:54:40;;;;;;;14.68;9.25;;;;;;;11.57;100.00;100506.38;5015220;28;20054;-78
2023/07/25 03:57:07;;;;;;;17.25;10.18;;;;;;;11.59;100.00;100508.94;5009801;28;20414;-79
2023/07/25 03:59:34;;;;;;;18.17;9.95;;;;;;;11.60;100.00;100506.22;4993546;28;20121;-79
2023/07/25 04:02:02;;;;;;;21.42;10.63;;;;;;;11.63;100.00;100506.09;4993300;28;20046;-79
2023/07/25 04:04:29;;;;;;;17.02;9.93;;;;;;;11.65;100.00;100508.69;5010596;28;20413;-79
2023/07/25 04:06:56;;;;;;;17.42;9.90;;;;;;;11.66;100.00;100505.13;5009773;28;20037;-80
2023/07/25 04:09:23;;;;;;;14.77;9.98;;;;;;;11.66;100.00;100505.13;4994166;28;20048;-79
2023/07/25 04:11:51;;;;;;;23.85;11.25;;;;;;;11.67;100.00;100506.00;4991011;28;20559;-79
2023/07/25 04:14:18;;;;;;;18.48;9.88;;;;;;;11.67;100.00;100509.47;4972375;28;20050;-78
2023/07/25 04:16:45;;;;;;;15.27;9.70;;;;;;;11.67;100.00;100516.56;4990197;28;20039;-77
2023/07/25 04:19:12;;;;;;;17.38;9.55;;;;;;;11.70;100.00;100511.16;4996770;28;20038;-78
2023/07/25 04:21:39;;;;;;;20.73;10.00;;;;;;;11.74;100.00;100518.91;5003344;28;20112;-78
2023/07/25 04:24:06;;;;;;;14.02;8.98;;;;;;;11.79;100.00;100511.63;5008314;28;20050;-77
2023/07/25 04:26:33;;;;;;;16.38;8.95;;;;;;;11.81;100.00;100506.28;5017930;28;20500;-77
2023/07/25 04:29:00;;;;;;;15.38;8.88;;;;;;;11.81;100.00;100504.50;4983333;28;20042;-77
2023/07/25 04:31:27;;;;;;;16.80;8.85;;;;;;;11.85;100.00;100504.41;4990532;28;20662;-80
2023/07/25 04:33:55;;;;;;;15.38;9.45;;;;;;;11.86;100.00;100506.09;4990343;28;20521;-80
2023/07/25 04:36:22;;;;;;;15.65;9.68;;;;;;;11.89;100.00;100508.63;5008882;28;20123;-82
2023/07/25 04:38:49;;;;;;;13.93;9.00;;;;;;;11.94;100.00;100504.00;4986784;28;20532;-77
2023/07/25 04:41:16;;;;;;;15.23;9.23;;;;;;;11.98;100.00;100505.63;4989144;28;20621;-79
2023/07/25 04:43:43;;;;;;;21.80;9.75;;;;;;;12.00;100.00;100511.72;4982986;28;20109;-80
2023/07/25 04:46:11;;;;;;;11.77;9.25;;;;;;;12.03;100.00;100514.22;4987741;28;20125;-80
2023/07/25 04:48:38;;;;;;;17.02;9.05;;;;;;;12.04;100.00;100518.59;4999829;28;20057;-81
2023/07/25 04:51:05;;;;;;;15.13;8.93;;;;;;;12.08;100.00;100520.16;4987092;28;20055;-80
2023/07/25 04:53:34;;;;;;;15.65;9.63;;;;;;;12.11;100.00;100513.88;4985630;28;20316;-72
2023/07/25 04:56:01;;;;;;;14.88;9.38;;;;;;;12.15;100.00;100512.84;4984061;28;20113;-72
2023/07/25 04:58:28;;;;;;;18.08;10.18;;;;;;;12.21;100.00;100517.00;4987116;28;20056;-72
2023/07/25 05:00:56;;;;;;;14.27;9.90;;;;;;;12.28;100.00;100518.47;4986826;28;20108;-72
2023/07/25 05:03:25;;;;;;;14.65;9.48;;;;;;;12.34;100.00;100507.66;4988937;28;20046;-72
2023/07/25 05:05:56;;;;;;;16.65;9.82;;;;;;;12.47;100.00;100509.75;4986704;28;20050;-72
2023/07/25 05:08:23;;;;;;;17.70;9.98;;;;;;;12.68;100.00;100508.81;4989145;28;20124;-72
2023/07/25 05:10:52;;;;;;;13.38;9.32;;;;;;;12.90;100.00;100513.13;4989363;28;20034;-72
2023/07/25 05:13:19;;;;;;;14.82;9.02;;;;;;;13.02;100.00;100511.72;4983241;28;20537;-72
2023/07/25 05:15:46;;;;;;;13.23;9.30;;;;;;;13.12;100.00;100518.31;5001358;28;20038;-72
2023/07/25 05:18:14;;;;;;;16.17;9.00;;;;;;;13.37;100.00;100522.47;5000937;28;20044;-72
2023/07/25 05:20:41;;;;;;;12.88;8.90;;;;;;;13.68;100.00;100520.19;4986940;28;20606;-73
2023/07/25 05:23:08;;;;;;;14.63;8.55;;;;;;;13.89;98.60;100519.09;4998976;28;20042;-72
2023/07/25 05:25:35;;;;;;;12.45;8.15;;;;;;;14.28;96.81;100520.72;4982365;28;20125;-72
2023/07/25 05:28:02;;;;;;;13.35;8.10;;;;;;;14.82;94.25;100513.56;4981352;28;20546;-72
2023/07/25 05:30:30;;;;;;;11.45;7.60;;;;;;;15.63;91.31;100510.91;4988737;28;20105;-72
2023/07/25 05:32:57;;;;;;;13.02;7.40;;;;;;;15.97;88.47;100510.78;4980270;28;20039;-72
2023/07/25 05:35:24;;;;;;;10.38;6.80;;;;;;;16.24;88.90;100512.75;4973070;28;20046;-72
2023/07/25 05:37:51;;;;;;;12.82;7.00;;;;;;;17.69;85.83;100513.59;4986399;28;20050;-72
2023/07/25 05:40:19;;;;;;;12.73;6.78;;;;;;;19.57;79.69;100514.97;4986985;28;20053;-71
2023/07/25 05:42:47;;;;;;;12.38;6.03;;;;;;;21.19;73.54;100511.63;4983418;28;20038;-74
2023/07/25 05:45:14;;;;;;;10.77;5.32;;;;;;;21.95;67.89;100511.69;5004371;28;20053;-71
2023/07/25 05:47:41;;;;;;;9.02;5.20;;;;;;;22.86;64.07;100511.16;5000130;28;20492;-72
2023/07/25 05:50:09;;;;;;;11.90;4.88;;;;;;;23.55;61.79;100512.25;5004615;28;20354;-77
2023/07/25 05:52:41;;;;;;;11.00;5.30;;;;;;;24.38;57.71;100502.06;4981279;28;20081;-71
2023/07/25 05:55:10;;;;;;;12.10;4.70;;;;;;;25.25;56.03;100511.69;4986437;28;20041;-72
2023/07/25 05:57:37;;;;;;;7.38;4.00;;;;;;;25.99;51.44;100510.78;5005825;28;20045;-72
2023/07/25 06:00:06;;;;;;;6.03;3.85;;;;;;;26.66;49.91;100511.16;5004273;28;20053;-72
2023/07/25 06:02:33;;;;;;;5.85;3.78;;;;;;;27.13;47.07;100522.53;5008088;28;20042;-72
2023/07/25 06:05:00;;;;;;;8.45;4.03;;;;;;;27.48;46.31;100525.22;5002390;28;20085;-72
2023/07/25 06:07:27;;;;;;;8.18;3.92;;;;;;;27.72;45.04;100521.75;5003449;28;20446;-72
2023/07/25 06:09:54;;;;;;;9.52;3.65;;;;;;;27.97;42.85;100519.91;5004432;28;20525;-72
2023/07/25 06:12:21;;;;;;;7.88;3.28;;;;;;;27.33;43.51;100517.72;5008577;28;20145;-72
2023/07/25 06:14:50;;;;;;;8.98;3.50;;;;;;;25.77;45.95;100523.75;5007403;28;20050;-72
2023/07/25 06:17:17;;;;;;;8.13;3.35;;;;;;;23.65;49.74;100535.66;5008061;28;20159;-72
2023/07/25 06:19:44;;;;;;;7.43;3.38;;;;;;;22.01;53.63;100521.94;5011795;28;20055;-72
2023/07/25 06:22:15;;;;;;;11.95;3.83;;;;;;;20.81;57.08;100520.91;4995970;28;20046;-73
2023/07/25 06:24:42;;;;;;;12.07;3.75;;;;;;;19.88;59.29;100515.38;4981457;28;20108;-72
2023/07/25 06:27:10;;;;;;;13.73;4.45;;;;;;;19.17;62.21;100518.72;5001461;28;20054;-72
2023/07/25 06:29:37;;;;;;;9.88;4.05;;;;;;;18.67;64.22;100520.47;5007383;28;20030;-72
2023/07/25 06:32:05;;;;;;;12.75;4.15;;;;;;;18.24;66.44;100518.91;5005626;28;20038;-72
2023/07/25 06:34:32;;;;;;;13.10;4.15;;;;;;;17.93;67.33;100521.78;5002731;28;20123;-72
2023/07/25 06:36:59;;;;;;;8.10;4.28;;;;;;;17.62;68.23;100529.16;5005664;28;20046;-72
2023/07/25 06:39:26;;;;;;;10.55;4.57;;;;;;;17.32;70.17;100521.28;5005393;28;20042;-71
2023/07/25 06:41:53;;;;;;;12.82;5.07;;;;;;;17.07;71.62;100537.03;5001492;28;20635;-78
2023/07/25 06:44:23;;;;;;;9.70;5.20;;;;;;;16.92;73.60;100532.63;4986668;28;20092;-75
2023/07/25 06:46:51;;;;;;;10.35;4.82;;;;;;;16.80;74.29;100528.91;4988969;28;20042;-75
2023/07/25 06:49:18;;;;;;;9.38;4.65;;;;;;;16.70;74.70;100522.44;5004879;28;20038;-75
2023/07/25 06:51:45;;;;;;;12.25;4.28;;;;;;;16.63;75.70;100526.44;4989056;28;20073;-76
2023/07/25 06:54:15;;;;;;;10.70;4.60;;;;;;;16.55;75.37;100526.88;4986913;28;20057;-76
2023/07/25 06:56:42;;;;;;;14.43;4.07;;;;;;;16.43;75.83;100521.34;5006911;28;20049;-76
2023/07/25 06:59:09;;;;;;;9.93;3.10;;;;;;;16.36;75.59;100524.50;5007264;28;20096;-76
2023/07/25 07:01:38;;;;;;;10.52;3.50;;;;;;;16.36;76.50;100525.34;4989132;28;20458;-75
2023/07/25 07:04:05;;;;;;;9.73;3.53;;;;;;;16.36;75.86;100540.44;5009926;28;20096;-76
2023/07/25 07:06:35;;;;;;;9.57;3.83;;;;;;;16.24;76.22;100534.03;5008767;28;20204;-75
2023/07/25 07:09:04;;;;;;;10.63;3.92;;;;;;;16.13;77.39;100537.34;5008250;28;20042;-75
2023/07/25 07:11:31;;;;;;;11.57;4.28;;;;;;;16.13;77.13;100540.84;5009321;28;20128;-75
2023/07/25 07:13:58;;;;;;;14.63;4.05;;;;;;;16.08;77.11;100542.06;5008082;28;20038;-75
2023/07/25 07:16:27;;;;;;;11.75;4.20;;;;;;;16.05;77.12;100547.56;5009880;28;20675;-76
2023/07/25 07:18:54;;;;;;;8.65;4.57;;;;;;;16.02;78.50;100540.63;4988100;28;20609;-75
2023/07/25 07:21:21;;;;;;;12.75;4.60;;;;;;;16.05;78.74;100548.41;4993402;28;20082;-75
2023/07/25 07:23:49;;;;;;;11.15;4.25;;;;;;;16.03;79.06;100552.94;5010398;28;20037;-75
2023/07/25 07:26:18;;;;;;;12.77;4.40;;;;;;;16.01;80.12;100554.00;4991555;28;20081;-75
2023/07/25 07:28:48;;;;;;;10.55;4.50;;;;;;;16.17;80.14;100549.53;4992778;28;20097;-75
2023/07/25 07:31:21;;;;;;;12.13;4.30;;;;;;;16.31;80.77;100559.34;5010522;28;20042;-75
2023/07/25 07:33:49;;;;;;;15.88;4.80;;;;;;;16.45;81.12;100562.03;5009754;28;20065;-75
2023/07/25 07:36:16;;;;;;;13.35;3.92;;;;;;;16.47;80.24;100561.97;4990117;28;20043;-75
2023/07/25 07:38:44;;;;;;;10.73;3.50;;;;;;;16.43;79.41;100571.06;5007718;28;20066;-75
2023/07/25 07:41:11;;;;;;;10.95;3.90;;;;;;;16.35;80.36;100566.19;5008595;28;20056;-75
2023/07/25 07:43:38;;;;;;;8.73;4.00;;;;;;;16.35;80.91;100571.50;5003920;28;20494;-75
2023/07/25 07:46:05;;;;;;;10.13;3.85;;;;;;;16.45;81.30;100575.31;5005646;28;20042;-75
2023/07/25 07:48:32;;;;;;;8.20;2.90;;;;;;;16.64;79.35;100574.22;5000175;28;20087;-75
2023/07/25 07:51:03;;;;;;;10.45;2.92;;;;;;;16.73;77.88;100579.03;5011199;28;20042;-75
2023/07/25 07:53:30;;;;;;;9.52;2.67;;;;;;;16.79;77.19;100577.75;4990154;28;20049;-75
2023/07/25 07:56:04;;;;;;;9.07;2.63;;;;;;;17.02;76.91;100578.19;4982049;28;20034;-75
2023/07/25 07:58:31;;;;;;;10.97;2.80;;;;;;;17.09;77.66;100582.22;5010414;28;20038;-76
2023/07/25 08:00:58;;;;;;;12.52;2.70;;;;;;;17.00;78.56;100588.09;4992328;28;20045;-75
2023/07/25 08:03:26;;;;;;;8.90;2.55;;;;;;;16.94;79.23;100596.47;5008889;28;20758;-76
2023/07/25 08:06:01;;;;;;;9.40;2.30;;;;;;;16.90;79.08;100595.75;5007167;28;20049;-76
2023/07/25 08:08:29;;;;;;;9.50;2.22;;;;;;;16.87;79.37;100588.81;5009910;28;20046;-75
2023/07/25 08:10:56;;;;;;;8.05;2.20;;;;;;;16.91;78.27;100590.34;5009038;28;20042;-75
2023/07/25 08:13:23;;;;;;;5.60;2.00;;;;;;;16.91;78.04;100590.34;5009792;28;20038;-76
2023/07/25 08:15:50;;;;;;;8.13;1.65;;;;;;;16.95;76.16;100591.03;4986849;28;20038;-76
2023/07/25 08:18:17;;;;;;;7.43;1.73;;;;;;;17.02;74.05;100588.84;4988277;28;20410;-75
2023/07/25 08:20:47;;;;;;;5.20;1.58;;;;;;;17.25;73.58;100589.25;5009868;28;20088;-76
2023/07/25 08:23:14;;;;;;;9.85;1.58;;;;;;;17.72;70.49;100595.19;5008111;28;20568;-76
2023/07/25 08:25:41;;;;;;;8.75;1.92;;;;;;;18.14;70.25;100590.72;5008917;28;20042;-76
2023/07/25 08:28:11;;;;;;;5.35;1.40;;;;;;;18.30;68.92;100594.06;5012588;28;20048;-76
2023/07/25 08:30:38;;;;;;;4.18;1.33;;;;;;;18.33;68.31;100589.47;4990178;28;20069;-76
2023/07/25 08:33:05;;;;;;;5.88;1.50;;;;;;;18.27;68.32;100594.25;4988083;28;20525;-76
2023/07/25 08:35:32;;;;;;;7.30;1.40;;;;;;;18.21;65.94;100600.00;4993183;28;20042;-76
2023/07/25 08:37:59;;;;;;;4.78;1.50;;;;;;;18.16;68.50;100597.66;5006791;28;20168;-76
2023/07/25 08:40:27;;;;;;;6.25;1.40;;;;;;;18.20;67.44;100600.97;4992309;28;20040;-76
2023/07/25 08:43:07;;;;;;;9.27;1.35;;;;;;;18.22;64.85;100601.72;5003889;28;20034;-76
2023/07/25 08:45:36;;;;;;;4.55;1.20;;;;;;;18.14;65.39;100610.22;5002687;28;20347;-76
2023/07/25 08:48:10;;;;;;;5.03;1.30;;;;;;;18.09;64.90;100611.47;5007593;28;20049;-75
2023/07/25 08:50:45;;;;;;;7.32;1.38;;;;;;;17.95;65.18;100607.00;5002805;28;20034;-76
2023/07/25 08:53:15;;;;;;;5.38;1.30;;;;;;;17.84;65.75;100597.06;4989119;28;20069;-77
2023/07/25 08:55:44;;;;;;;3.47;1.20;;;;;;;17.81;65.96;100603.44;5009096;28;20048;-76
2023/07/25 08:58:13;;;;;;;7.80;1.77;;;;;;;17.91;68.19;100609.03;5010203;28;20121;-76
2023/07/25 09:00:43;;;;;;;5.47;1.38;;;;;;;18.23;66.83;100611.44;4984668;28;20053;-76
2023/07/25 09:03:11;;;;;;;12.85;1.92;;;;;;;18.56;66.60;100607.47;5009009;28;20057;-76
2023/07/25 09:05:38;;;;;;;11.38;1.27;;;;;;;18.95;66.42;100602.19;4992246;28;20077;-76
2023/07/25 09:08:08;;;;;;;4.53;0.90;;;;;;;19.26;60.80;100602.69;4997787;28;20065;-76
2023/07/25 09:10:36;;;;;;;6.90;0.90;;;;;;;19.36;60.57;100598.41;4998020;28;20153;-75
2023/07/25 09:13:03;;;;;;;4.45;1.05;;;;;;;19.50;60.14;100605.44;5016573;28;20038;-75
2023/07/25 09:15:31;;;;;;;5.03;1.00;;;;;;;19.65;60.69;100613.34;5004706;28;20050;-76
2023/07/25 09:17:58;;;;;;;8.57;1.40;;;;;;;19.75;60.25;100622.41;5009128;28;20105;-76
2023/07/25 09:20:28;;;;;;;8.55;1.55;;;;;;;19.88;59.01;100618.88;5008707;28;20046;-76
2023/07/25 09:22:55;;;;;;;4.72;1.08;;;;;;;20.00;60.07;100618.81;5008236;28;20069;-76
2023/07/25 09:25:25;;;;;;;3.05;1.10;;;;;;;20.06;58.43;100617.50;5005646;28;20050;-76
2023/07/25 09:27:54;;;;;;;4.18;1.20;;;;;;;19.97;60.24;100619.03;4989045;28;20044;-75
2023/07/25 09:30:27;;;;;;;4.38;1.65;;;;;;;19.88;58.00;100617.03;5004533;28;20125;-76
2023/07/25 09:32:55;;;;;;;3.33;0.90;;;;;;;19.75;58.95;100625.06;5004579;28;20707;-76
2023/07/25 09:35:23;;;;;;;3.88;1.00;;;;;;;19.69;60.10;100622.81;5007935;28;20748;-76
2023/07/25 09:37:54;;;;;;;3.78;1.00;;;;;;;19.70;59.50;100625.41;5005086;28;20509;-77
2023/07/25 09:40:22;;;;;;;3.55;1.08;;;;;;;19.63;59.34;100628.63;4988077;28;20096;-77
2023/07/25 09:42:51;;;;;;;4.68;1.33;;;;;;;19.71;57.48;100624.44;5006861;28;20068;-76
2023/07/25 09:45:21;;;;;;;4.18;1.13;;;;;;;19.84;57.60;100618.22;4998372;28;20128;-77
2023/07/25 09:47:51;;;;;;;3.63;0.98;;;;;;;20.19;56.25;100624.63;4990378;28;20082;-76
2023/07/25 09:50:19;;;;;;;4.18;0.85;;;;;;;20.39;54.64;100621.31;5006734;28;20409;-76
2023/07/25 09:52:46;;;;;;;7.68;1.17;;;;;;;20.46;56.27;100619.00;4992476;28;20068;-76
2023/07/25 09:55:13;;;;;;;6.28;1.27;;;;;;;20.67;57.14;100624.56;4969882;28;20054;-76
2023/07/25 09:57:40;;;;;;;3.67;0.82;;;;;;;20.90;57.99;100624.66;5006131;28;20034;-77
2023/07/25 10:00:09;;;;;;;5.32;1.00;;;;;;;20.87;54.64;100624.88;5009384;28;20062;-77
2023/07/25 10:02:37;;;;;;;4.95;1.20;;;;;;;20.57;55.99;100628.91;4997800;28;20034;-76
2023/07/25 10:05:06;;;;;;;5.10;1.13;;;;;;;20.35;56.75;100630.53;4983895;28;20045;-77
2023/07/25 10:07:34;;;;;;;5.10;0.98;;;;;;;20.04;57.87;100632.81;5003148;28;20042;-76
2023/07/25 10:10:03;;;;;;;4.32;0.98;;;;;;;19.84;57.20;100643.13;5006956;28;20045;-76
2023/07/25 10:12:33;;;;;;;4.07;1.00;;;;;;;19.59;58.39;100645.84;4987174;28;20050;-76
2023/07/25 10:15:00;;;;;;;6.63;1.17;;;;;;;19.35;58.96;100644.81;5006591;28;20052;-76
2023/07/25 10:17:28;;;;;;;6.70;1.30;;;;;;;19.13;59.16;100640.13;4990517;28;20482;-75
2023/07/25 10:19:55;;;;;;;7.28;1.42;;;;;;;18.91;59.59;100644.25;4984786;28;20053;-79
2023/07/25 10:22:39;;;;;;;6.63;1.30;;;;;;;18.72;60.47;100636.63;5008656;28;20045;-76
2023/07/25 10:25:17;;;;;;;8.63;1.40;;;;;;;18.59;61.30;100639.28;5004446;28;20046;-76
2023/07/25 10:27:44;;;;;;;6.78;1.20;;;;;;;18.77;61.52;100639.84;4986788;28;20042;-76
2023/07/25 10:30:22;;;;;;;9.55;1.70;;;;;;;19.08;60.22;100632.44;4976398;28;20041;-75
2023/07/25 10:32:56;;;;;;;6.57;1.27;;;;;;;19.37;59.93;100629.53;4997576;28;20125;-76
2023/07/25 10:35:54;;;;;;;4.25;1.40;;;;;;;19.85;59.40;100628.81;4990622;28;20073;-76
2023/07/25 10:38:40;;;;;;;5.57;1.35;;;;;;;20.36;57.65;100626.88;4994620;28;20046;-76
2023/07/25 10:41:13;;;;;;;4.20;1.10;;;;;;;20.84;55.65;100620.63;4995878;28;20062;-76
2023/07/25 10:43:46;;;;;;;9.32;1.38;;;;;;;21.08;52.58;100625.91;5007983;28;20053;-76
2023/07/25 10:46:29;;;;;;;5.82;1.13;;;;;;;21.04;53.59;100619.06;5010463;28;20469;-76
2023/07/25 10:49:01;;;;;;;4.38;1.15;;;;;;;20.94;54.07;100626.97;4994239;28;20107;-76
2023/07/25 10:52:02;;;;;;;4.75;1.08;;;;;;;20.86;54.37;100625.84;5006271;28;20042;-77
2023/07/25 10:54:31;;;;;;;5.28;1.00;;;;;;;20.68;53.18;100622.72;4941203;28;20066;-78
2023/07/25 10:57:22;;;;;;;5.88;0.90;;;;;;;20.52;53.26;100625.72;5003172;28;20041;-77
2023/07/25 11:00:34;;;;;;;4.43;0.93;;;;;;;20.29;52.28;100631.00;5006563;28;20041;-77
2023/07/25 11:03:32;;;;;;;6.22;1.10;;;;;;;20.10;54.18;100626.16;4996813;28;20046;-77
2023/07/25 11:06:08;;;;;;;4.80;0.80;;;;;;;19.96;54.29;100628.03;5008540;28;20128;-77
2023/07/25 11:08:41;;;;;;;2.90;0.90;;;;;;;19.95;54.56;100622.78;5009268;28;20404;-77
2023/07/25 11:11:12;;;;;;;4.10;0.93;;;;;;;20.12;54.28;100618.88;5009827;28;20100;-77
2023/07/25 11:13:42;;;;;;;2.63;0.82;;;;;;;20.11;53.48;100614.50;5009945;28;20608;-78
2023/07/25 11:16:13;;;;;;;2.40;0.70;;;;;;;20.26;52.84;100610.66;5011185;28;20045;-78
2023/07/25 11:18:51;;;;;;;3.58;0.73;;;;;;;20.54;51.63;100607.72;4986786;28;20034;-83
2023/07/25 11:21:19;;;;;;;4.55;1.15;;;;;;;20.66;51.86;100608.59;5009758;28;20045;-82
2023/07/25 11:23:47;;;;;;;4.55;0.90;;;;;;;20.60;50.82;100605.44;5007516;28;20045;-82